Time;durP1;ratioP1;P1;durP2;ratioP2;P2;SDS_P1;SDS_P2;PMS_P1;PMS_P2;Temp;Humidity;BMP_temperature;BMP_pressure;BME280_temperature;BME280_humidity;BME280_pressure;Samples;Min_cycle;Max_cycle;Signal;HPM_P1;HPM_P2
2021/04/28 00:01:57;;;;;;;;;20.50;20.25;;;;;;;;5020929;28;11622;-78
2021/04/28 00:04:24;;;;;;;;;23.50;23.50;;;;;;;;5022042;28;11610;-78
2021/04/28 00:06:51;;;;;;;;;21.00;21.00;;;;;;;;5020783;28;11620;-78
2021/04/28 00:09:18;;;;;;;;;15.25;15.25;;;;;;;;5023399;28;11098;-78
2021/04/28 00:11:45;;;;;;;;;18.75;16.75;;;;;;;;5020880;28;11611;-78
2021/04/28 00:14:12;;;;;;;;;20.75;19.00;;;;;;;;5023754;28;11795;-79
2021/04/28 00:16:39;;;;;;;;;24.75;20.25;;;;;;;;5020989;28;11584;-78
2021/04/28 00:19:07;;;;;;;;;22.00;18.50;;;;;;;;5019485;28;11625;-78
2021/04/28 00:21:34;;;;;;;;;21.25;19.50;;;;;;;;5020105;28;11595;-79
2021/04/28 00:24:01;;;;;;;;;22.00;22.00;;;;;;;;5022316;28;11614;-79
2021/04/28 00:26:30;;;;;;;;;18.00;18.00;;;;;;;;5022777;28;12587;-81
2021/04/28 00:28:57;;;;;;;;;23.50;19.25;;;;;;;;5021205;28;11734;-80
2021/04/28 00:31:24;;;;;;;;;15.75;13.75;;;;;;;;5018967;28;11576;-80
2021/04/28 00:33:51;;;;;;;;;25.00;24.25;;;;;;;;5021700;28;11709;-81
2021/04/28 00:36:19;;;;;;;;;27.25;18.75;;;;;;;;5023019;28;11607;-81
2021/04/28 00:38:46;;;;;;;;;23.25;22.25;;;;;;;;5022777;28;11757;-80
2021/04/28 00:41:13;;;;;;;;;24.50;24.50;;;;;;;;5021653;28;11598;-80
2021/04/28 00:43:40;;;;;;;;;22.75;20.25;;;;;;;;5018438;28;11603;-78
2021/04/28 00:46:07;;;;;;;;;27.50;24.75;;;;;;;;5020859;28;11683;-77
2021/04/28 00:48:35;;;;;;;;;33.25;28.50;;;;;;;;5020714;28;11641;-77
2021/04/28 00:51:03;;;;;;;;;24.75;21.75;;;;;;;;5021634;28;11710;-79
2021/04/28 00:53:31;;;;;;;;;25.50;22.75;;;;;;;;5023134;28;11595;-80
2021/04/28 00:55:59;;;;;;;;;23.75;19.50;;;;;;;;5021384;28;11731;-78
2021/04/28 00:58:26;;;;;;;;;21.00;21.00;;;;;;;;5019559;28;11599;-79
2021/04/28 01:00:54;;;;;;;;;26.75;26.25;;;;;;;;5020662;28;11596;-80
2021/04/28 01:03:22;;;;;;;;;25.50;21.25;;;;;;;;5021118;28;12174;-80
2021/04/28 01:05:49;;;;;;;;;21.75;21.00;;;;;;;;5019218;28;11597;-80
2021/04/28 01:08:19;;;;;;;;;29.00;22.50;;;;;;;;5021278;28;11595;-80
2021/04/28 01:10:49;;;;;;;;;20.25;20.00;;;;;;;;5022016;28;11622;-80
2021/04/28 01:13:17;;;;;;;;;23.25;20.75;;;;;;;;5021009;28;11601;-79
2021/04/28 01:15:45;;;;;;;;;26.00;23.25;;;;;;;;5021932;28;12216;-79
2021/04/28 01:18:12;;;;;;;;;18.25;18.25;;;;;;;;5016984;28;11611;-80
2021/04/28 01:20:40;;;;;;;;;20.50;19.00;;;;;;;;5019964;28;11608;-81
2021/04/28 01:23:10;;;;;;;;;26.50;21.50;;;;;;;;5020718;28;11665;-80
2021/04/28 01:25:38;;;;;;;;;28.50;24.25;;;;;;;;5022104;28;11630;-83
2021/04/28 01:28:07;;;;;;;;;26.25;23.00;;;;;;;;5023024;28;11626;-83
2021/04/28 01:30:38;;;;;;;;;19.00;16.25;;;;;;;;5020762;28;11700;-83
2021/04/28 01:33:05;;;;;;;;;29.00;23.50;;;;;;;;5020259;28;11599;-82
2021/04/28 01:35:32;;;;;;;;;20.50;18.00;;;;;;;;5021870;28;11604;-85
2021/04/28 01:38:00;;;;;;;;;26.75;20.25;;;;;;;;5022200;28;11725;-82
2021/04/28 01:40:28;;;;;;;;;28.25;25.50;;;;;;;;5021350;28;11614;-82
2021/04/28 01:42:57;;;;;;;;;30.50;24.75;;;;;;;;5021021;28;11660;-82
2021/04/28 01:45:25;;;;;;;;;23.75;23.75;;;;;;;;5022397;28;11741;-81
2021/04/28 01:47:52;;;;;;;;;29.75;24.25;;;;;;;;5018457;28;12489;-81
2021/04/28 01:50:21;;;;;;;;;27.00;25.25;;;;;;;;5021805;28;11652;-81
2021/04/28 01:52:48;;;;;;;;;30.50;20.00;;;;;;;;5021948;28;11616;-82
2021/04/28 01:55:15;;;;;;;;;32.50;29.25;;;;;;;;5020687;28;11680;-82
2021/04/28 01:57:43;;;;;;;;;24.50;24.25;;;;;;;;5022011;28;11787;-82
2021/04/28 02:00:15;;;;;;;;;25.50;25.50;;;;;;;;5020012;28;11723;-79
2021/04/28 02:02:42;;;;;;;;;26.00;22.75;;;;;;;;5020437;28;11725;-81
2021/04/28 02:05:11;;;;;;;;;30.25;26.25;;;;;;;;5020054;28;11619;-79
2021/04/28 02:07:38;;;;;;;;;26.00;25.25;;;;;;;;5020661;28;11613;-84
2021/04/28 02:10:08;;;;;;;;;35.00;28.75;;;;;;;;5018050;28;11657;-83
2021/04/28 02:12:35;;;;;;;;;28.25;27.25;;;;;;;;5022081;28;11707;-78
2021/04/28 02:15:04;;;;;;;;;31.00;30.50;;;;;;;;5021660;28;11720;-81
2021/04/28 02:17:31;;;;;;;;;26.50;23.00;;;;;;;;5019865;28;11652;-80
2021/04/28 02:19:58;;;;;;;;;18.50;18.50;;;;;;;;5020923;28;11621;-79
2021/04/28 02:22:27;;;;;;;;;26.50;20.25;;;;;;;;5020816;28;11606;-78
2021/04/28 02:24:54;;;;;;;;;28.00;26.75;;;;;;;;5021020;28;11636;-79
2021/04/28 02:27:21;;;;;;;;;25.00;21.67;;;;;;;;5019136;28;11684;-81
2021/04/28 02:29:48;;;;;;;;;31.00;26.00;;;;;;;;5024736;28;11705;-77
2021/04/28 02:32:16;;;;;;;;;26.00;23.00;;;;;;;;5023884;28;11538;-78
2021/04/28 02:34:43;;;;;;;;;29.67;24.67;;;;;;;;5022617;28;11630;-78
2021/04/28 02:37:10;;;;;;;;;30.00;26.33;;;;;;;;5025281;28;11614;-78
2021/04/28 02:39:40;;;;;;;;;25.67;22.00;;;;;;;;5013679;28;11637;-77
2021/04/28 02:42:07;;;;;;;;;32.00;28.00;;;;;;;;5024284;28;11777;-78
2021/04/28 02:44:35;;;;;;;;;31.00;26.33;;;;;;;;5023973;28;11605;-81
2021/04/28 02:47:04;;;;;;;;;29.67;27.33;;;;;;;;5022070;28;12555;-78
2021/04/28 02:49:33;;;;;;;;;20.67;18.67;;;;;;;;5022731;28;11629;-78
2021/04/28 02:52:01;;;;;;;;;32.33;22.67;;;;;;;;5023555;28;11643;-80
2021/04/28 02:54:28;;;;;;;;;38.00;30.00;;;;;;;;5024162;28;11607;-79
2021/04/28 02:56:56;;;;;;;;;24.67;24.67;;;;;;;;5022536;28;11612;-78
2021/04/28 02:59:24;;;;;;;;;25.33;25.33;;;;;;;;5024524;28;11736;-78
2021/04/28 03:01:52;;;;;;;;;36.33;31.33;;;;;;;;5022443;28;11642;-77
2021/04/28 03:04:19;;;;;;;;;33.67;32.00;;;;;;;;5024087;28;11641;-77
2021/04/28 03:06:48;;;;;;;;;29.00;25.33;;;;;;;;5023164;28;11597;-77
2021/04/28 03:09:15;;;;;;;;;27.00;24.33;;;;;;;;5020983;28;11750;-76
2021/04/28 03:11:43;;;;;;;;;24.00;20.00;;;;;;;;5022697;28;11756;-77
2021/04/28 03:14:10;;;;;;;;;31.33;28.67;;;;;;;;5014431;28;11705;-76
2021/04/28 03:16:38;;;;;;;;;25.00;25.00;;;;;;;;5025481;28;8931;-76
2021/04/28 03:19:06;;;;;;;;;30.33;25.33;;;;;;;;5023211;28;11659;-78
2021/04/28 03:21:36;;;;;;;;;28.67;23.00;;;;;;;;5020924;28;11600;-77
2021/04/28 03:24:05;;;;;;;;;24.67;23.33;;;;;;;;5005195;28;12446;-77
2021/04/28 03:26:32;;;;;;;;;26.00;21.00;;;;;;;;5018817;28;11624;-78
2021/04/28 03:28:59;;;;;;;;;26.67;24.33;;;;;;;;5024211;28;8871;-78
2021/04/28 03:31:26;;;;;;;;;26.33;23.00;;;;;;;;5022105;28;8847;-78
2021/04/28 03:33:53;;;;;;;;;25.33;25.33;;;;;;;;5023454;28;12362;-77
2021/04/28 03:36:20;;;;;;;;;27.67;25.33;;;;;;;;5016229;28;9626;-78
2021/04/28 03:38:47;;;;;;;;;33.00;29.00;;;;;;;;5022285;28;8894;-77
2021/04/28 03:41:16;;;;;;;;;31.00;26.33;;;;;;;;5022894;28;8876;-77
2021/04/28 03:43:43;;;;;;;;;31.67;25.00;;;;;;;;5022685;28;12431;-78
2021/04/28 03:46:10;;;;;;;;;28.33;25.00;;;;;;;;5022492;28;11778;-78
2021/04/28 03:48:37;;;;;;;;;24.00;24.00;;;;;;;;5030334;28;9622;-78
2021/04/28 03:51:04;;;;;;;;;27.67;25.00;;;;;;;;5023763;28;11585;-77
2021/04/28 03:53:31;;;;;;;;;24.33;17.33;;;;;;;;5022722;28;11640;-78
2021/04/28 03:55:58;;;;;;;;;27.00;27.00;;;;;;;;5021813;28;8890;-76
2021/04/28 03:58:27;;;;;;;;;27.00;21.00;;;;;;;;5022155;28;8910;-78
2021/04/28 04:00:54;;;;;;;;;34.00;26.00;;;;;;;;5022965;28;11613;-77
2021/04/28 04:03:21;;;;;;;;;33.67;26.67;;;;;;;;5019507;28;8876;-77
2021/04/28 04:05:48;;;;;;;;;28.33;26.33;;;;;;;;5022472;28;11639;-79
2021/04/28 04:08:15;;;;;;;;;12.00;12.00;;;;;;;;5022562;28;9031;-78
2021/04/28 04:10:42;;;;;;;;;27.00;23.00;;;;;;;;5021816;28;11564;-85
2021/04/28 04:13:10;;;;;;;;;27.67;27.67;;;;;;;;5022817;28;8902;-79
2021/04/28 04:15:37;;;;;;;;;30.33;29.33;;;;;;;;5023712;28;12442;-78
2021/04/28 04:18:05;;;;;;;;;34.00;24.33;;;;;;;;5024368;28;8868;-86
2021/04/28 04:20:32;;;;;;;;;31.33;28.00;;;;;;;;5022337;28;8876;-82
2021/04/28 04:22:59;;;;;;;;;27.67;24.67;;;;;;;;5021973;28;9030;-82
2021/04/28 04:25:26;;;;;;;;;31.00;28.33;;;;;;;;5019415;28;8875;-81
2021/04/28 04:27:53;;;;;;;;;25.00;25.00;;;;;;;;5021232;28;8921;-80
2021/04/28 04:30:21;;;;;;;;;40.67;34.67;;;;;;;;5022519;28;8880;-79
2021/04/28 04:32:49;;;;;;;;;27.00;23.67;;;;;;;;5022178;28;8906;-83
2021/04/28 04:35:16;;;;;;;;;42.00;33.00;;;;;;;;5023373;28;8894;-83
2021/04/28 04:37:43;;;;;;;;;38.00;31.33;;;;;;;;5021664;28;8867;-85
2021/04/28 04:40:14;;;;;;;;;31.00;24.67;;;;;;;;5023648;28;8894;-84
2021/04/28 04:42:42;;;;;;;;;26.67;26.67;;;;;;;;5018420;28;8859;-86
2021/04/28 04:45:10;;;;;;;;;34.67;30.00;;;;;;;;5026321;28;8881;-81
2021/04/28 04:47:37;;;;;;;;;34.33;34.33;;;;;;;;5026470;28;9586;-84
2021/04/28 04:50:07;;;;;;;;;31.67;29.00;;;;;;;;5021704;28;8992;-86
2021/04/28 04:52:35;;;;;;;;;30.00;28.33;;;;;;;;5023870;28;9820;-86
2021/04/28 04:55:01;;;;;;;;;32.00;28.00;;;;;;;;5022135;28;8912;-83
2021/04/28 04:57:28;;;;;;;;;26.33;26.33;;;;;;;;5024616;28;8888;-82
2021/04/28 04:59:55;;;;;;;;;29.33;27.67;;;;;;;;5019225;28;8871;-83
2021/04/28 05:02:22;;;;;;;;;33.00;30.67;;;;;;;;5013026;28;8804;-82
2021/04/28 05:04:49;;;;;;;;;40.67;29.00;;;;;;;;5021868;28;8868;-82
2021/04/28 05:07:17;;;;;;;;;39.67;30.33;;;;;;;;5021422;28;8896;-82
2021/04/28 05:09:44;;;;;;;;;36.00;34.33;;;;;;;;5023475;28;8872;-83
2021/04/28 05:12:11;;;;;;;;;37.67;32.67;;;;;;;;5020847;28;8872;-82
2021/04/28 05:14:38;;;;;;;;;40.33;37.67;;;;;;;;5021365;28;8992;-81
2021/04/28 05:17:05;;;;;;;;;45.00;41.67;;;;;;;;5021442;28;8887;-83
2021/04/28 05:19:32;;;;;;;;;44.00;35.33;;;;;;;;5023056;28;8886;-83
2021/04/28 05:21:59;;;;;;;;;36.33;29.67;;;;;;;;5020711;28;8882;-82
2021/04/28 05:24:27;;;;;;;;;28.33;28.33;;;;;;;;5022013;28;8876;-81
2021/04/28 05:26:54;;;;;;;;;33.00;31.00;;;;;;;;5019232;28;8902;-81
2021/04/28 05:29:21;;;;;;;;;36.33;34.33;;;;;;;;5021103;28;8968;-80
2021/04/28 05:31:48;;;;;;;;;37.67;33.00;;;;;;;;5030055;28;8932;-79
2021/04/28 05:34:15;;;;;;;;;41.67;37.33;;;;;;;;5026635;28;8865;-80
2021/04/28 05:36:41;;;;;;;;;35.33;30.33;;;;;;;;5024300;28;8883;-80
2021/04/28 05:39:09;;;;;;;;;34.33;32.33;;;;;;;;5029814;28;11728;-79
2021/04/28 05:41:36;;;;;;;;;33.00;31.00;;;;;;;;5039211;28;8912;-79
2021/04/28 05:44:04;;;;;;;;;31.00;27.00;;;;;;;;5034491;28;12468;-77
2021/04/28 05:46:31;;;;;;;;;43.00;38.33;;;;;;;;5019333;28;11620;-80
2021/04/28 05:48:58;;;;;;;;;34.33;34.33;;;;;;;;5035017;28;8867;-79
2021/04/28 05:51:27;;;;;;;;;36.67;32.33;;;;;;;;5037584;28;11589;-79
2021/04/28 05:53:54;;;;;;;;;41.67;37.67;;;;;;;;5031901;28;11649;-80
2021/04/28 05:56:21;;;;;;;;;33.33;31.33;;;;;;;;5032485;28;11623;-81
2021/04/28 05:58:49;;;;;;;;;36.50;35.00;;;;;;;;5036132;28;11627;-78
2021/04/28 06:01:16;;;;;;;;;36.25;36.25;;;;;;;;5030792;28;11543;-79
2021/04/28 06:03:43;;;;;;;;;53.75;42.25;;;;;;;;5036364;28;11628;-79
2021/04/28 06:06:09;;;;;;;;;38.00;36.00;;;;;;;;5037691;28;11728;-79
2021/04/28 06:08:37;;;;;;;;;46.00;40.00;;;;;;;;5035741;28;11586;-80
2021/04/28 06:11:05;;;;;;;;;46.25;40.50;;;;;;;;5034678;28;11770;-80
2021/04/28 06:13:32;;;;;;;;;43.75;40.00;;;;;;;;5036419;28;11655;-79
2021/04/28 06:16:00;;;;;;;;;43.75;39.75;;;;;;;;5033910;28;11634;-80
2021/04/28 06:18:27;;;;;;;;;52.50;45.00;;;;;;;;5038789;28;12053;-79
2021/04/28 06:20:54;;;;;;;;;50.25;44.25;;;;;;;;5039314;28;11643;-79
2021/04/28 06:23:21;;;;;;;;;49.50;42.25;;;;;;;;5023380;28;11704;-80
2021/04/28 06:25:49;;;;;;;;;52.25;42.25;;;;;;;;5038481;28;11646;-80
2021/04/28 06:28:15;;;;;;;;;47.75;41.50;;;;;;;;5018964;28;11603;-80
2021/04/28 06:30:42;;;;;;;;;47.50;42.00;;;;;;;;5032658;28;12330;-79
2021/04/28 06:33:10;;;;;;;;;50.50;43.75;;;;;;;;5037180;28;11631;-80
2021/04/28 06:35:37;;;;;;;;;44.50;40.75;;;;;;;;5035338;28;11621;-79
2021/04/28 06:38:04;;;;;;;;;57.25;46.25;;;;;;;;5044643;28;12404;-80
2021/04/28 06:40:31;;;;;;;;;47.75;41.75;;;;;;;;5035026;28;12434;-79
2021/04/28 06:42:58;;;;;;;;;47.00;40.25;;;;;;;;5036593;28;11635;-79
2021/04/28 06:45:25;;;;;;;;;54.25;45.00;;;;;;;;5033657;28;11636;-79
2021/04/28 06:47:52;;;;;;;;;49.50;43.50;;;;;;;;5028263;28;11678;-78
2021/04/28 06:50:20;;;;;;;;;53.50;45.50;;;;;;;;5032361;28;11748;-80
2021/04/28 06:52:47;;;;;;;;;44.50;40.50;;;;;;;;5054793;28;11655;-81
2021/04/28 06:55:15;;;;;;;;;48.50;40.00;;;;;;;;5034160;28;11749;-80
2021/04/28 06:57:42;;;;;;;;;41.00;36.00;;;;;;;;5029435;28;12186;-77
2021/04/28 07:00:10;;;;;;;;;41.75;36.50;;;;;;;;5031910;28;11750;-82
2021/04/28 07:02:37;;;;;;;;;35.00;33.25;;;;;;;;5031459;28;11613;-81
2021/04/28 07:05:04;;;;;;;;;35.50;32.25;;;;;;;;5026867;28;11697;-72
2021/04/28 07:07:32;;;;;;;;;41.25;35.25;;;;;;;;5035896;28;11613;-73
2021/04/28 07:09:59;;;;;;;;;34.75;34.25;;;;;;;;5025892;28;11614;-73
2021/04/28 07:12:29;;;;;;;;;41.75;35.25;;;;;;;;5032702;28;11599;-73
2021/04/28 07:14:56;;;;;;;;;43.00;37.50;;;;;;;;5032664;28;11610;-72
2021/04/28 07:17:23;;;;;;;;;47.00;40.50;;;;;;;;5029829;28;11661;-73
2021/04/28 07:19:50;;;;;;;;;44.50;40.25;;;;;;;;5033934;28;11587;-74
2021/04/28 07:22:17;;;;;;;;;56.75;41.75;;;;;;;;5036994;28;11614;-72
2021/04/28 07:24:44;;;;;;;;;48.75;42.00;;;;;;;;5034390;28;11570;-71
2021/04/28 07:27:11;;;;;;;;;45.25;41.50;;;;;;;;5018499;28;11645;-72
2021/04/28 07:29:38;;;;;;;;;53.75;43.00;;;;;;;;5017560;28;11596;-72
2021/04/28 07:32:05;;;;;;;;;49.25;39.25;;;;;;;;5022683;28;11717;-72
2021/04/28 07:34:32;;;;;;;;;55.00;43.50;;;;;;;;5023946;28;11645;-72
2021/04/28 07:36:59;;;;;;;;;51.50;40.50;;;;;;;;5028273;28;12387;-72
2021/04/28 07:39:26;;;;;;;;;52.75;42.25;;;;;;;;5031112;28;11648;-72
2021/04/28 07:41:54;;;;;;;;;49.75;39.50;;;;;;;;5020048;28;11691;-72
2021/04/28 07:44:25;;;;;;;;;54.50;43.75;;;;;;;;5018511;28;11610;-72
2021/04/28 07:46:53;;;;;;;;;52.75;42.75;;;;;;;;5064648;28;12575;-72
2021/04/28 07:49:20;;;;;;;;;41.50;38.75;;;;;;;;5024610;28;12487;-73
2021/04/28 07:51:46;;;;;;;;;41.00;38.50;;;;;;;;5031587;28;11568;-72
2021/04/28 07:54:14;;;;;;;;;55.25;43.50;;;;;;;;5035407;28;11534;-72
2021/04/28 07:56:41;;;;;;;;;52.75;41.25;;;;;;;;5024655;28;12011;-72
2021/04/28 07:59:09;;;;;;;;;47.25;41.00;;;;;;;;5021837;28;11544;-73
2021/04/28 08:01:36;;;;;;;;;40.75;36.25;;;;;;;;5020978;28;11516;-72
2021/04/28 08:04:04;;;;;;;;;51.00;37.75;;;;;;;;5022458;28;11354;-72
2021/04/28 08:06:31;;;;;;;;;43.50;37.75;;;;;;;;5020165;28;11577;-72
2021/04/28 08:08:58;;;;;;;;;34.75;33.75;;;;;;;;5022084;28;11287;-72
2021/04/28 08:11:26;;;;;;;;;38.75;34.25;;;;;;;;5020507;28;11168;-72
2021/04/28 08:13:53;;;;;;;;;42.75;33.75;;;;;;;;5023010;28;10942;-75
2021/04/28 08:16:21;;;;;;;;;43.00;37.00;;;;;;;;5022547;28;10929;-74
2021/04/28 08:18:48;;;;;;;;;45.25;38.00;;;;;;;;5022229;28;10847;-74
2021/04/28 08:21:15;;;;;;;;;40.50;36.25;;;;;;;;5020775;28;10902;-73
2021/04/28 08:23:43;;;;;;;;;30.50;28.00;;;;;;;;5017997;28;10758;-73
2021/04/28 08:26:10;;;;;;;;;31.75;31.75;;;;;;;;5021357;28;10486;-74
2021/04/28 08:28:40;;;;;;;;;45.50;35.50;;;;;;;;5013328;28;10820;-74
2021/04/28 08:31:09;;;;;;;;;27.50;27.50;;;;;;;;5008520;28;11069;-74
2021/04/28 08:33:37;;;;;;;;;34.75;32.25;;;;;;;;5008752;28;10055;-74
2021/04/28 08:36:04;;;;;;;;;30.00;29.75;;;;;;;;5009943;28;9892;-74
2021/04/28 08:38:31;;;;;;;;;36.75;33.25;;;;;;;;5014855;28;9613;-73
2021/04/28 08:40:59;;;;;;;;;30.00;27.25;;;;;;;;5019635;28;10553;-74
2021/04/28 08:43:27;;;;;;;;;38.25;33.50;;;;;;;;5021405;28;10319;-76
2021/04/28 08:45:54;;;;;;;;;30.75;28.25;;;;;;;;5020816;28;9767;-75
2021/04/28 08:48:21;;;;;;;;;31.67;27.33;;;;;;;;5019977;28;9596;-74
2021/04/28 08:50:58;;;;;;;;;30.00;28.00;;;;;;;;5018410;28;9260;-74
2021/04/28 08:53:28;;;;;;;;;35.33;28.00;;;;;;;;5050427;28;9487;-73
2021/04/28 08:55:55;;;;;;;;;34.67;31.67;;;;;;;;5020257;28;9286;-73
2021/04/28 08:58:23;;;;;;;;;35.00;31.67;;;;;;;;5019280;28;9247;-74
2021/04/28 09:00:50;;;;;;;;;29.50;26.25;;;;;;;;5018120;28;9000;-73
2021/04/28 09:03:19;;;;;;;;;27.75;25.50;;;;;;;;5018396;28;9198;-73
2021/04/28 09:05:46;;;;;;;;;25.25;21.00;;;;;;;;5016261;28;8993;-73
2021/04/28 09:08:15;;;;;;;;;24.75;23.00;;;;;;;;5012936;28;9003;-73
2021/04/28 09:10:43;;;;;;;;;8.50;7.25;;;;;;;;5020734;28;8880;-73
2021/04/28 09:13:16;;;;;;;;;23.75;21.00;;;;;;;;5019316;28;8872;-73
2021/04/28 09:15:44;;;;;;;;;19.75;19.75;;;;;;;;5020279;28;8898;-73
2021/04/28 09:18:13;;;;;;;;;27.25;25.25;;;;;;;;5021320;28;8911;-73
2021/04/28 09:20:44;;;;;;;;;29.75;24.25;;;;;;;;5020514;28;9698;-73
2021/04/28 09:23:15;;;;;;;;;19.75;19.25;;;;;;;;5019763;28;8872;-73
2021/04/28 09:25:44;;;;;;;;;28.50;24.75;;;;;;;;5018884;28;8898;-73
2021/04/28 09:28:29;;;;;;;;;24.75;24.25;;;;;;;;5021487;28;8887;-73
2021/04/28 09:31:14;;;;;;;;;23.25;20.00;;;;;;;;5010828;28;8816;-74
2021/04/28 09:33:49;;;;;;;;;24.50;20.50;;;;;;;;5008894;28;8868;-72
2021/04/28 09:36:17;;;;;;;;;19.25;19.25;;;;;;;;5023570;28;8860;-72
2021/04/28 09:39:02;;;;;;;;;19.50;17.75;;;;;;;;5011172;28;8866;-72
2021/04/28 09:41:40;;;;;;;;;19.75;18.75;;;;;;;;5011884;28;8874;-71
2021/04/28 09:44:38;;;;;;;;;16.25;14.50;;;;;;;;5011500;28;8852;-72
2021/04/28 09:47:11;;;;;;;;;16.50;14.00;;;;;;;;4978990;28;8873;-72
2021/04/28 09:49:49;;;;;;;;;13.25;13.25;;;;;;;;5009539;28;8875;-71
2021/04/28 09:52:18;;;;;;;;;18.00;13.75;;;;;;;;5015366;28;8863;-73
2021/04/28 09:54:48;;;;;;;;;11.75;10.50;;;;;;;;5025919;28;8860;-73
2021/04/28 09:57:19;;;;;;;;;15.75;14.25;;;;;;;;5018650;28;8885;-73
2021/04/28 09:59:47;;;;;;;;;9.25;8.00;;;;;;;;5023452;28;8957;-74
2021/04/28 10:02:15;;;;;;;;;13.00;11.75;;;;;;;;5021998;28;8846;-73
2021/04/28 10:04:42;;;;;;;;;13.25;13.25;;;;;;;;5024320;28;8875;-74
2021/04/28 10:07:09;;;;;;;;;9.50;8.50;;;;;;;;5022905;28;8907;-73
2021/04/28 10:09:37;;;;;;;;;16.75;12.00;;;;;;;;5017420;28;8863;-73
2021/04/28 10:12:07;;;;;;;;;6.75;6.75;;;;;;;;5019646;28;8883;-74
2021/04/28 10:14:35;;;;;;;;;14.25;13.00;;;;;;;;5013941;28;8982;-73
2021/04/28 10:17:04;;;;;;;;;14.00;12.25;;;;;;;;5010175;28;9461;-74
2021/04/28 10:19:32;;;;;;;;;12.00;12.00;;;;;;;;5011737;28;8863;-73
2021/04/28 10:22:03;;;;;;;;;11.00;9.75;;;;;;;;5012130;28;8874;-72
2021/04/28 10:24:31;;;;;;;;;12.25;10.75;;;;;;;;5008285;28;8923;-75
2021/04/28 10:26:58;;;;;;;;;10.20;10.00;;;;;;;;5008698;28;8860;-75
2021/04/28 10:29:27;;;;;;;;;12.40;11.00;;;;;;;;5008206;28;8893;-76
2021/04/28 10:31:55;;;;;;;;;9.40;8.20;;;;;;;;5010315;28;8860;-74
2021/04/28 10:34:27;;;;;;;;;86.25;84.75;;;;;;;;5011045;28;9746;-75
2021/04/28 10:36:56;;;;;;;;;114.25;109.00;;;;;;;;5010676;28;10975;-74
2021/04/28 10:39:24;;;;;;;;;507.00;462.75;;;;;;;;5007372;28;11607;-73
2021/04/28 10:41:53;;;;;;;;;784.25;690.25;;;;;;;;5006000;28;8970;-75
2021/04/28 10:44:40;;;;;;;;;701.80;619.20;;;;;;;;5020006;28;8891;-74
2021/04/28 10:47:33;;;;;;;;;1461.60;1134.20;;;;;;;;5007610;28;8875;-74
2021/04/28 10:50:03;;;;;;;;;28.67;25.67;;;;;;;;5003007;28;8883;-74
2021/04/28 10:52:32;;;;;;;;;565.00;522.60;;;;;;;;5013085;28;9416;-74
2021/04/28 10:54:59;;;;;;;;;4.80;4.80;;;;;;;;5007672;28;10421;-76
2021/04/28 10:57:39;;;;;;;;;70.50;59.00;;;;;;;;5010884;28;8996;-76
2021/04/28 11:00:28;;;;;;;;;67.33;55.67;;;;;;;;5019474;28;8870;-76
2021/04/28 11:02:55;;;;;;;;;25.80;23.00;;;;;;;;5016249;28;9196;-78
2021/04/28 11:05:26;;;;;;;;;806.00;731.60;;;;;;;;5007577;28;8863;-76
2021/04/28 11:07:54;;;;;;;;;36.75;32.50;;;;;;;;5013205;28;8855;-76
2021/04/28 11:10:29;;;;;;;;;9.00;9.00;;;;;;;;5011467;28;8898;-76
2021/04/28 11:13:08;;;;;;;;;12.80;12.80;;;;;;;;5009488;28;8878;-75
2021/04/28 11:15:53;;;;;;;;;12.20;11.20;;;;;;;;5010844;28;8880;-75
2021/04/28 11:18:33;;;;;;;;;10.00;10.00;;;;;;;;5022946;28;8918;-74
2021/04/28 11:21:28;;;;;;;;;18.00;16.00;;;;;;;;5012613;28;8862;-76
2021/04/28 11:24:09;;;;;;;;;13.20;13.20;;;;;;;;4985949;28;8864;-77
2021/04/28 11:26:37;;;;;;;;;18.20;16.20;;;;;;;;5013406;28;8863;-75
2021/04/28 11:29:05;;;;;;;;;12.60;12.00;;;;;;;;5008280;28;8859;-75
2021/04/28 11:31:54;;;;;;;;;12.60;12.60;;;;;;;;5000584;28;9684;-75
2021/04/28 11:34:34;;;;;;;;;14.00;11.80;;;;;;;;5021052;28;8868;-77
2021/04/28 11:37:02;;;;;;;;;14.00;13.80;;;;;;;;5024166;28;8887;-75
2021/04/28 11:39:36;;;;;;;;;13.00;10.80;;;;;;;;5022673;28;8905;-75
2021/04/28 11:42:08;;;;;;;;;11.20;11.20;;;;;;;;5021552;28;8864;-75
2021/04/28 11:44:36;;;;;;;;;14.20;13.00;;;;;;;;5022172;28;8884;-76
2021/04/28 11:47:09;;;;;;;;;13.00;12.00;;;;;;;;5023565;28;8962;-75
2021/04/28 11:49:39;;;;;;;;;8.60;8.60;;;;;;;;5019176;28;8888;-75
2021/04/28 11:52:06;;;;;;;;;10.80;10.80;;;;;;;;5022368;28;8883;-74
2021/04/28 11:54:34;;;;;;;;;12.80;12.80;;;;;;;;5025358;28;8882;-74
2021/04/28 11:57:01;;;;;;;;;7.00;7.00;;;;;;;;5022254;28;8875;-75
2021/04/28 11:59:29;;;;;;;;;10.20;10.20;;;;;;;;5024002;28;8904;-76
2021/04/28 12:01:56;;;;;;;;;12.80;12.40;;;;;;;;5035402;28;8840;-73
2021/04/28 12:04:31;;;;;;;;;12.60;10.60;;;;;;;;5021737;28;8871;-74
2021/04/28 12:06:59;;;;;;;;;14.80;14.80;;;;;;;;5016163;28;8926;-77
2021/04/28 12:09:46;;;;;;;;;10.20;9.80;;;;;;;;5020725;28;8954;-74
2021/04/28 12:12:18;;;;;;;;;11.00;11.00;;;;;;;;5018786;28;8894;-75
2021/04/28 12:14:48;;;;;;;;;12.00;10.60;;;;;;;;5015048;28;8887;-77
2021/04/28 12:17:17;;;;;;;;;15.60;14.00;;;;;;;;5024697;28;8902;-74
2021/04/28 12:19:47;;;;;;;;;10.80;10.80;;;;;;;;5025855;28;8872;-75
2021/04/28 12:22:14;;;;;;;;;13.40;12.20;;;;;;;;5038463;28;8957;-74
2021/04/28 12:24:43;;;;;;;;;11.20;10.40;;;;;;;;5036707;28;8881;-74
2021/04/28 12:27:16;;;;;;;;;9.20;9.20;;;;;;;;5021086;28;8902;-72
2021/04/28 12:29:45;;;;;;;;;9.40;8.40;;;;;;;;5021736;28;8906;-72
2021/04/28 12:32:12;;;;;;;;;11.00;11.00;;;;;;;;5023186;28;10124;-72
2021/04/28 12:34:41;;;;;;;;;10.20;8.60;;;;;;;;5036792;28;8869;-73
2021/04/28 12:37:12;;;;;;;;;11.40;11.00;;;;;;;;5030662;28;8864;-73
2021/04/28 12:39:39;;;;;;;;;15.00;12.00;;;;;;;;5020711;28;8856;-73
2021/04/28 12:42:06;;;;;;;;;11.00;11.00;;;;;;;;5018078;28;9004;-72
2021/04/28 12:44:36;;;;;;;;;13.40;11.60;;;;;;;;5027326;28;8881;-74
2021/04/28 12:47:04;;;;;;;;;15.00;13.00;;;;;;;;5019605;28;8903;-72
2021/04/28 12:49:31;;;;;;;;;12.80;11.60;;;;;;;;5014829;28;8868;-73
2021/04/28 12:52:00;;;;;;;;;10.00;10.00;;;;;;;;5019659;28;8909;-72
2021/04/28 12:54:33;;;;;;;;;9.00;9.00;;;;;;;;5030888;28;8980;-72
2021/04/28 12:57:03;;;;;;;;;13.00;11.60;;;;;;;;5030683;28;8837;-73
2021/04/28 12:59:30;;;;;;;;;8.00;8.00;;;;;;;;5016700;28;8864;-73
2021/04/28 13:02:02;;;;;;;;;12.60;12.60;;;;;;;;5015326;28;8846;-73
2021/04/28 13:04:30;;;;;;;;;12.60;12.60;;;;;;;;5016751;28;8943;-73
2021/04/28 13:07:10;;;;;;;;;13.80;10.20;;;;;;;;5016774;28;8933;-73
2021/04/28 13:09:40;;;;;;;;;11.80;11.80;;;;;;;;5018022;28;8911;-73
2021/04/28 13:12:08;;;;;;;;;11.20;10.00;;;;;;;;5016786;28;9450;-73
2021/04/28 13:14:48;;;;;;;;;12.00;10.60;;;;;;;;5019463;28;8884;-73
2021/04/28 13:17:15;;;;;;;;;12.60;10.60;;;;;;;;5019029;28;9539;-73
2021/04/28 13:19:43;;;;;;;;;13.60;12.60;;;;;;;;5016611;28;8902;-77
2021/04/28 13:22:14;;;;;;;;;12.40;12.40;;;;;;;;5019260;28;8914;-73
2021/04/28 13:24:47;;;;;;;;;11.80;11.80;;;;;;;;5017755;28;9509;-73
2021/04/28 13:27:16;;;;;;;;;13.00;10.00;;;;;;;;5017323;28;8907;-73
2021/04/28 13:29:50;;;;;;;;;14.00;14.00;;;;;;;;5017648;28;8891;-74
2021/04/28 13:32:31;;;;;;;;;11.40;9.40;;;;;;;;5018480;28;8940;-73
2021/04/28 13:35:14;;;;;;;;;12.80;12.00;;;;;;;;5021259;28;8867;-74
2021/04/28 13:37:42;;;;;;;;;11.80;11.00;;;;;;;;5019828;28;8871;-72
2021/04/28 13:40:24;;;;;;;;;11.50;10.25;;;;;;;;5021614;28;8848;-73
2021/04/28 13:42:51;;;;;;;;;10.00;8.25;;;;;;;;5007858;28;8880;-74
2021/04/28 13:45:18;;;;;;;;;15.00;11.50;;;;;;;;5020647;28;9657;-74
2021/04/28 13:47:45;;;;;;;;;10.00;10.00;;;;;;;;5019132;28;8871;-75
2021/04/28 13:50:13;;;;;;;;;13.25;10.00;;;;;;;;5018278;28;8931;-75
2021/04/28 13:52:41;;;;;;;;;14.25;11.75;;;;;;;;5019971;28;9617;-74
2021/04/28 13:55:10;;;;;;;;;10.00;10.00;;;;;;;;5018830;28;8894;-74
2021/04/28 13:57:39;;;;;;;;;10.25;10.25;;;;;;;;5021897;28;8890;-76
2021/04/28 14:00:07;;;;;;;;;10.00;10.00;;;;;;;;5019944;28;8918;-75
2021/04/28 14:02:34;;;;;;;;;11.75;10.50;;;;;;;;5021225;28;8962;-76
2021/04/28 14:05:01;;;;;;;;;9.50;9.50;;;;;;;;5020492;28;8982;-73
2021/04/28 14:07:29;;;;;;;;;6.25;6.25;;;;;;;;5020774;28;9678;-75
2021/04/28 14:09:55;;;;;;;;;9.75;9.75;;;;;;;;5020236;28;8964;-77
2021/04/28 14:12:22;;;;;;;;;9.25;9.25;;;;;;;;5021194;28;8975;-76
2021/04/28 14:14:50;;;;;;;;;7.75;7.75;;;;;;;;5020261;28;8934;-75
2021/04/28 14:17:17;;;;;;;;;7.50;7.50;;;;;;;;5020654;28;8960;-76
2021/04/28 14:19:44;;;;;;;;;6.50;6.50;;;;;;;;5020538;28;8894;-76
2021/04/28 14:22:11;;;;;;;;;8.00;8.00;;;;;;;;5019970;28;8870;-77
2021/04/28 14:24:38;;;;;;;;;10.75;9.25;;;;;;;;5021515;28;8913;-75
2021/04/28 14:27:06;;;;;;;;;10.50;10.25;;;;;;;;5022640;28;8875;-79
2021/04/28 14:29:33;;;;;;;;;10.00;9.75;;;;;;;;5021382;28;8915;-73
2021/04/28 14:32:01;;;;;;;;;5.00;5.00;;;;;;;;5023125;28;9667;-74
2021/04/28 14:34:31;;;;;;;;;6.25;6.25;;;;;;;;5024675;28;8900;-74
2021/04/28 14:36:58;;;;;;;;;7.75;7.75;;;;;;;;5038336;28;8973;-74